RJDCRJOM

Guest
Details From RJDC - YAMAGUCHI UBE
To RJOM - MATSUYAMA
Flight Number -
Tags generated
Created
Modified
Stats Distance 72 nm / 134 km
Max Altitude 7,600 ft / 2,316 m
Waypoints 3
Social Downloads 0
Likes 0
Share VATSIM

Download

Looking for another format? Having issues loading an existing format? Contact us
Advertisement - Login to hide

Notes

Basic altitude profile: - Ascent Rate: 2500ft/min - Ascent Speed: 250kts - Cruise Altitude: 35000ft - Cruise Speed: 420kts - Descent Rate: 1500ft/min - Descent Speed: 250kts Options: - Use NATs: yes - Use PACOTS: yes - Use low airways: yes - Use high airways: yes

Route

RJDC YANAI RJOM

ID Type Via Altitude Latitude Longitude Leg Dist Tot Dist Heading (true) Name
O RJDC APT - 0 ft / 0 m 33.92991˚ 131.27877˚ - 0 nm - YAMAGUCHI UBE
YANAI FIX - 7,600 ft / 2,316 m 33.77303˚ 131.98809˚ 36 nm 36 nm 105° / 105° -
O RJOM APT - 0 ft / 0 m 33.82726˚ 132.69963˚ 35 nm 72 nm 85° / 85° MATSUYAMA

Altitude Profile

Advertisement - Login to hide

RJDC

Details ICAO RJDC (UBJ)
Name YAMAGUCHI UBE
Region Japan
Timezone Asia/Tokyo (UTC+9.0)
Stats Elevation 23 ft / 7 m (AMSL)
Location 33.929913° 131.278765°
Runways 1
Magnetic Variation 7.561° W

METAR

RJDC 131100Z 28004KT 250V030 9999 FEW030 SCT040 BKN060 04/M05 Q1026

Decode

TAF

Not found

Departure Runways

ID Width Length Bearing (true) Bearing (mag) Surface Threshold Offset Overrun Length
07 150 ft / 46 m 8,196 ft / 2,498 m 62.16° 69.72° Asphalt 0 ft / 0 m 210 ft / 64 m
25 150 ft / 46 m 8,196 ft / 2,498 m 242.17° 249.73° Asphalt 0 ft / 0 m 210 ft / 64 m

RJOM

Details ICAO RJOM (MYJ)
Name MATSUYAMA
Region Japan
Timezone Asia/Tokyo (UTC+9.0)
Stats Elevation 25 ft / 8 m (AMSL)
Location 33.827257° 132.699631°
Runways 1
Magnetic Variation 7.513° W

METAR

RJOM 131100Z 33012KT 9999 FEW030 SCT060 06/M05 Q1025

Decode

TAF

TAF RJOM 130508Z 1306/1412 32014KT 9999 FEW030 BKN050 BECMG 1315/1317 02007KT BECMG 1409/1412 06007KT

Decode

Destination Runways

ID Width Length Bearing (true) Bearing (mag) Surface Threshold Offset Overrun Length
14 150 ft / 46 m 8,203 ft / 2,500 m 130.67° 138.18° Asphalt 0 ft / 0 m 206 ft / 63 m
32 150 ft / 46 m 8,203 ft / 2,500 m 310.68° 318.19° Asphalt 0 ft / 0 m 195 ft / 59 m